EZY371M EGGW-EGPH
Flight info
| Callsign | EZY371M |
|---|---|
| Flight time | 0h 51m |
| Altitude | 34000 |
| Route | OLNEY T420 TNT UN57 POL UN601 RIBEL DCT INPIP |
| Aircraft | A319/M-SDE3FGHIRWY/LB1 |
Departure
| Time | 2026-05-04 20:48 |
|---|---|
| Airport | London Luton Airport (EGGW) |
Arrival
| Time | 2026-05-04 21:40 |
|---|---|
| Airport | Edinburgh Airport (EGPH) |
| Time | Latitude | Longitude | Altitude | Speed | Heading |
|---|---|---|---|---|---|
| 2026-05-04 20:14 | 51.88161 | -0.37370 | 517 ft | 0 kts | 161° |
| 2026-05-04 20:32 | 51.88174 | -0.37377 | 517 ft | 3 kts | 162° |
| 2026-05-04 20:32 | 51.88195 | -0.37390 | 517 ft | 2 kts | 154° |
| 2026-05-04 20:33 | 51.88210 | -0.37400 | 516 ft | 3 kts | 204° |
| 2026-05-04 20:33 | 51.88220 | -0.37378 | 516 ft | 3 kts | 251° |
| 2026-05-04 20:33 | 51.88222 | -0.37369 | 516 ft | 0 kts | 251° |
| 2026-05-04 20:42 | 51.88221 | -0.37375 | 516 ft | 2 kts | 251° |
| 2026-05-04 20:42 | 51.88210 | -0.37427 | 516 ft | 7 kts | 252° |
| 2026-05-04 20:43 | 51.88210 | -0.37532 | 516 ft | 12 kts | 285° |
| 2026-05-04 20:43 | 51.88194 | -0.37627 | 519 ft | 9 kts | 239° |
| 2026-05-04 20:43 | 51.88157 | -0.37728 | 523 ft | 12 kts | 237° |
| 2026-05-04 20:43 | 51.88081 | -0.37858 | 523 ft | 19 kts | 217° |
| 2026-05-04 20:44 | 51.87982 | -0.37981 | 523 ft | 17 kts | 216° |
| 2026-05-04 20:44 | 51.87897 | -0.38015 | 523 ft | 12 kts | 176° |
| 2026-05-04 20:44 | 51.87821 | -0.37961 | 523 ft | 12 kts | 135° |
| 2026-05-04 20:44 | 51.87779 | -0.37841 | 523 ft | 13 kts | 114° |
| 2026-05-04 20:45 | 51.87741 | -0.37710 | 522 ft | 14 kts | 115° |
| 2026-05-04 20:45 | 51.87694 | -0.37547 | 520 ft | 16 kts | 117° |
| 2026-05-04 20:45 | 51.87609 | -0.37458 | 523 ft | 14 kts | 170° |
| 2026-05-04 20:45 | 51.87513 | -0.37504 | 521 ft | 15 kts | 228° |
| 2026-05-04 20:46 | 51.87483 | -0.37657 | 523 ft | 14 kts | 253° |
| 2026-05-04 20:46 | 51.87458 | -0.37807 | 522 ft | 17 kts | 254° |
| 2026-05-04 20:46 | 51.87420 | -0.38005 | 524 ft | 17 kts | 244° |
| 2026-05-04 20:46 | 51.87330 | -0.38098 | 522 ft | 16 kts | 206° |
| 2026-05-04 20:47 | 51.87270 | -0.38130 | 523 ft | 6 kts | 186° |
| 2026-05-04 20:47 | 51.87248 | -0.38099 | 524 ft | 5 kts | 76° |
| 2026-05-04 20:47 | 51.87259 | -0.38024 | 524 ft | 8 kts | 75° |
| 2026-05-04 20:47 | 51.87306 | -0.37740 | 523 ft | 61 kts | 74° |
| 2026-05-04 20:48 | 51.87485 | -0.36718 | 526 ft | 128 kts | 74° |
| 2026-05-04 20:48 | 51.87760 | -0.35145 | 852 ft | 149 kts | 73° |
| 2026-05-04 20:48 | 51.88036 | -0.33509 | 1550 ft | 152 kts | 74° |
| 2026-05-04 20:48 | 51.88315 | -0.31805 | 2089 ft | 165 kts | 73° |
| 2026-05-04 20:49 | 51.88653 | -0.29919 | 2537 ft | 184 kts | 71° |
| 2026-05-04 20:49 | 51.89080 | -0.27845 | 2894 ft | 206 kts | 60° |
| 2026-05-04 20:49 | 51.90159 | -0.26311 | 3483 ft | 217 kts | 17° |
| 2026-05-04 20:49 | 51.91652 | -0.26411 | 4247 ft | 221 kts | 334° |
| 2026-05-04 20:50 | 51.92742 | -0.28102 | 5090 ft | 222 kts | 294° |
| 2026-05-04 20:50 | 51.92957 | -0.30562 | 5894 ft | 227 kts | 265° |
| 2026-05-04 20:50 | 51.92817 | -0.33080 | 6813 ft | 227 kts | 265° |
| 2026-05-04 20:50 | 51.92672 | -0.35782 | 7150 ft | 254 kts | 265° |
| 2026-05-04 20:51 | 51.92662 | -0.38772 | 7581 ft | 277 kts | 282° |
| 2026-05-04 20:51 | 51.93593 | -0.41467 | 8483 ft | 281 kts | 312° |
| 2026-05-04 20:51 | 51.94982 | -0.43697 | 9448 ft | 281 kts | 314° |
| 2026-05-04 20:51 | 51.96369 | -0.45963 | 10295 ft | 288 kts | 313° |
| 2026-05-04 20:52 | 51.97826 | -0.48383 | 10608 ft | 311 kts | 313° |
| 2026-05-04 20:52 | 51.99365 | -0.50957 | 11205 ft | 322 kts | 313° |
| 2026-05-04 20:52 | 52.00937 | -0.53583 | 11957 ft | 327 kts | 313° |
| 2026-05-04 20:52 | 52.02535 | -0.56251 | 12765 ft | 331 kts | 313° |
| 2026-05-04 20:53 | 52.04152 | -0.58950 | 13538 ft | 336 kts | 314° |
| 2026-05-04 20:53 | 52.05791 | -0.61684 | 14245 ft | 340 kts | 313° |
| 2026-05-04 20:53 | 52.07452 | -0.64460 | 14924 ft | 344 kts | 313° |
| 2026-05-04 20:53 | 52.09130 | -0.67272 | 15593 ft | 348 kts | 313° |
| 2026-05-04 20:54 | 52.10825 | -0.70121 | 16257 ft | 353 kts | 313° |
| 2026-05-04 20:54 | 52.12586 | -0.72934 | 16909 ft | 358 kts | 318° |
| 2026-05-04 20:54 | 52.14638 | -0.75275 | 17559 ft | 364 kts | 327° |
| 2026-05-04 20:54 | 52.16818 | -0.77418 | 18218 ft | 368 kts | 327° |
| 2026-05-04 20:55 | 52.19020 | -0.79586 | 18796 ft | 372 kts | 327° |
| 2026-05-04 20:55 | 52.21242 | -0.81779 | 19380 ft | 375 kts | 327° |
| 2026-05-04 20:55 | 52.23483 | -0.83997 | 19970 ft | 378 kts | 327° |
| 2026-05-04 20:55 | 52.25744 | -0.86238 | 20566 ft | 382 kts | 326° |
| 2026-05-04 20:56 | 52.27250 | -0.87734 | 20958 ft | 384 kts | 326° |
| 2026-05-04 20:56 | 52.29536 | -0.90005 | 21600 ft | 385 kts | 326° |
| 2026-05-04 20:56 | 52.31831 | -0.92282 | 22252 ft | 387 kts | 325° |
| 2026-05-04 20:56 | 52.34140 | -0.94576 | 22853 ft | 389 kts | 325° |
| 2026-05-04 20:57 | 52.36463 | -0.96893 | 23445 ft | 392 kts | 325° |
| 2026-05-04 20:57 | 52.38799 | -0.99231 | 23952 ft | 395 kts | 325° |
| 2026-05-04 20:57 | 52.41160 | -1.01600 | 24383 ft | 400 kts | 325° |
| 2026-05-04 20:57 | 52.43541 | -1.03990 | 24828 ft | 403 kts | 325° |
| 2026-05-04 20:58 | 52.45941 | -1.06401 | 25274 ft | 406 kts | 325° |
| 2026-05-04 20:58 | 52.48359 | -1.08826 | 25724 ft | 409 kts | 326° |
| 2026-05-04 20:58 | 52.50791 | -1.11269 | 26180 ft | 411 kts | 326° |
| 2026-05-04 20:58 | 52.53239 | -1.13733 | 26614 ft | 414 kts | 326° |
| 2026-05-04 20:59 | 52.55702 | -1.16213 | 27045 ft | 417 kts | 326° |
| 2026-05-04 20:59 | 52.58180 | -1.18708 | 27466 ft | 419 kts | 326° |
| 2026-05-04 20:59 | 52.60676 | -1.21222 | 27882 ft | 422 kts | 326° |
| 2026-05-04 20:59 | 52.63186 | -1.23752 | 28298 ft | 425 kts | 326° |
| 2026-05-04 21:00 | 52.65716 | -1.26311 | 28707 ft | 428 kts | 326° |
| 2026-05-04 21:00 | 52.68255 | -1.28890 | 29113 ft | 430 kts | 326° |
| 2026-05-04 21:00 | 52.70810 | -1.31491 | 29514 ft | 433 kts | 326° |
| 2026-05-04 21:00 | 52.73383 | -1.34111 | 29913 ft | 436 kts | 327° |
| 2026-05-04 21:01 | 52.75974 | -1.36750 | 30326 ft | 439 kts | 327° |
| 2026-05-04 21:01 | 52.78575 | -1.39400 | 30676 ft | 440 kts | 328° |
| 2026-05-04 21:01 | 52.81185 | -1.42062 | 31019 ft | 442 kts | 328° |
| 2026-05-04 21:01 | 52.83804 | -1.44741 | 31336 ft | 444 kts | 328° |
| 2026-05-04 21:02 | 52.86433 | -1.47435 | 31660 ft | 445 kts | 328° |
| 2026-05-04 21:02 | 52.89063 | -1.50134 | 32082 ft | 444 kts | 328° |
| 2026-05-04 21:02 | 52.91688 | -1.52832 | 32529 ft | 443 kts | 329° |
| 2026-05-04 21:02 | 52.94301 | -1.55525 | 32960 ft | 442 kts | 329° |
| 2026-05-04 21:03 | 52.96910 | -1.58218 | 33403 ft | 441 kts | 329° |
| 2026-05-04 21:03 | 52.99507 | -1.60905 | 33859 ft | 440 kts | 329° |
| 2026-05-04 21:03 | 53.02101 | -1.63587 | 34046 ft | 437 kts | 330° |
| 2026-05-04 21:03 | 53.04660 | -1.66193 | 34064 ft | 424 kts | 334° |
| 2026-05-04 21:04 | 53.10021 | -1.69858 | 34055 ft | 414 kts | 342° |
| 2026-05-04 21:04 | 53.15419 | -1.73191 | 34057 ft | 413 kts | 342° |
| 2026-05-04 21:05 | 53.20808 | -1.76531 | 34060 ft | 413 kts | 342° |
| 2026-05-04 21:05 | 53.26196 | -1.79888 | 34055 ft | 413 kts | 341° |
| 2026-05-04 21:06 | 53.31529 | -1.83231 | 34056 ft | 412 kts | 341° |
| 2026-05-04 21:06 | 53.36893 | -1.86592 | 34056 ft | 412 kts | 341° |
| 2026-05-04 21:07 | 53.42254 | -1.89961 | 34064 ft | 411 kts | 341° |
| 2026-05-04 21:07 | 53.47613 | -1.93335 | 34052 ft | 411 kts | 341° |
| 2026-05-04 21:08 | 53.52966 | -1.96709 | 34048 ft | 411 kts | 341° |
| 2026-05-04 21:08 | 53.58320 | -2.00095 | 34051 ft | 411 kts | 341° |
| 2026-05-04 21:09 | 53.63665 | -2.03491 | 34049 ft | 411 kts | 341° |
| 2026-05-04 21:09 | 53.69013 | -2.06899 | 34048 ft | 411 kts | 341° |
| 2026-05-04 21:10 | 53.74359 | -2.10313 | 34046 ft | 411 kts | 340° |
| 2026-05-04 21:10 | 53.79670 | -2.13845 | 34049 ft | 410 kts | 339° |
| 2026-05-04 21:11 | 53.84961 | -2.17504 | 34051 ft | 410 kts | 339° |
| 2026-05-04 21:11 | 53.90241 | -2.21162 | 34050 ft | 410 kts | 339° |
| 2026-05-04 21:12 | 53.95528 | -2.24797 | 34047 ft | 410 kts | 339° |
| 2026-05-04 21:12 | 54.00815 | -2.28414 | 34050 ft | 409 kts | 338° |
| 2026-05-04 21:13 | 54.06059 | -2.32028 | 34052 ft | 409 kts | 338° |
| 2026-05-04 21:13 | 54.11329 | -2.35679 | 34052 ft | 409 kts | 338° |
| 2026-05-04 21:14 | 54.16596 | -2.39326 | 34050 ft | 409 kts | 338° |
| 2026-05-04 21:14 | 54.21864 | -2.42991 | 34048 ft | 409 kts | 338° |
| 2026-05-04 21:15 | 54.27124 | -2.46655 | 34055 ft | 408 kts | 337° |
| 2026-05-04 21:15 | 54.32379 | -2.50315 | 34055 ft | 408 kts | 337° |
| 2026-05-04 21:16 | 54.37625 | -2.53999 | 34057 ft | 407 kts | 337° |
| 2026-05-04 21:16 | 54.42865 | -2.57695 | 34060 ft | 408 kts | 337° |
| 2026-05-04 21:17 | 54.48234 | -2.61486 | 34078 ft | 423 kts | 336° |
| 2026-05-04 21:17 | 54.53692 | -2.65349 | 34069 ft | 424 kts | 336° |
| 2026-05-04 21:18 | 54.56426 | -2.67282 | 33483 ft | 425 kts | 336° |
| 2026-05-04 21:18 | 54.59165 | -2.69217 | 32789 ft | 424 kts | 336° |
| 2026-05-04 21:18 | 54.61885 | -2.71140 | 32166 ft | 421 kts | 336° |
| 2026-05-04 21:18 | 54.64582 | -2.73055 | 31592 ft | 418 kts | 336° |
| 2026-05-04 21:19 | 54.67233 | -2.74944 | 31389 ft | 406 kts | 336° |
| 2026-05-04 21:19 | 54.69804 | -2.76778 | 31234 ft | 394 kts | 336° |
| 2026-05-04 21:19 | 54.72309 | -2.78571 | 30910 ft | 387 kts | 335° |
| 2026-05-04 21:19 | 54.74783 | -2.80346 | 30517 ft | 383 kts | 335° |
| 2026-05-04 21:20 | 54.77231 | -2.82106 | 30111 ft | 379 kts | 335° |
| 2026-05-04 21:20 | 54.79659 | -2.83853 | 29623 ft | 376 kts | 335° |
| 2026-05-04 21:20 | 54.82070 | -2.85588 | 29146 ft | 374 kts | 335° |
| 2026-05-04 21:20 | 54.84464 | -2.87308 | 28683 ft | 371 kts | 335° |
| 2026-05-04 21:21 | 54.86845 | -2.89020 | 28234 ft | 369 kts | 335° |
| 2026-05-04 21:21 | 54.89209 | -2.90728 | 27805 ft | 367 kts | 335° |
| 2026-05-04 21:21 | 54.91555 | -2.92427 | 27363 ft | 364 kts | 335° |
| 2026-05-04 21:21 | 54.93892 | -2.94118 | 26920 ft | 362 kts | 335° |
| 2026-05-04 21:22 | 54.96210 | -2.95794 | 26475 ft | 360 kts | 335° |
| 2026-05-04 21:22 | 54.98518 | -2.97461 | 26063 ft | 358 kts | 334° |
| 2026-05-04 21:22 | 55.00807 | -2.99120 | 25664 ft | 355 kts | 334° |
| 2026-05-04 21:22 | 55.03075 | -3.00767 | 25245 ft | 352 kts | 334° |
| 2026-05-04 21:23 | 55.05329 | -3.02410 | 25048 ft | 352 kts | 334° |
| 2026-05-04 21:23 | 55.07589 | -3.04058 | 25062 ft | 353 kts | 334° |
| 2026-05-04 21:23 | 55.09860 | -3.05718 | 25066 ft | 354 kts | 334° |
| 2026-05-04 21:23 | 55.12130 | -3.07382 | 25066 ft | 354 kts | 334° |
| 2026-05-04 21:24 | 55.14400 | -3.09045 | 25064 ft | 354 kts | 334° |
| 2026-05-04 21:24 | 55.16668 | -3.10709 | 24815 ft | 354 kts | 334° |
| 2026-05-04 21:24 | 55.18984 | -3.12407 | 23936 ft | 366 kts | 334° |
| 2026-05-04 21:24 | 55.21350 | -3.14138 | 23295 ft | 369 kts | 334° |
| 2026-05-04 21:25 | 55.23717 | -3.15873 | 22785 ft | 368 kts | 333° |
| 2026-05-04 21:25 | 55.26068 | -3.17599 | 22318 ft | 365 kts | 333° |
| 2026-05-04 21:25 | 55.28409 | -3.19279 | 21829 ft | 363 kts | 337° |
| 2026-05-04 21:25 | 55.30893 | -3.20121 | 21429 ft | 366 kts | 354° |
| 2026-05-04 21:26 | 55.33406 | -3.19865 | 21288 ft | 357 kts | 1° |
| 2026-05-04 21:26 | 55.35856 | -3.19479 | 20988 ft | 351 kts | 1° |
| 2026-05-04 21:26 | 55.38272 | -3.19107 | 20602 ft | 347 kts | 1° |
| 2026-05-04 21:26 | 55.40671 | -3.18740 | 20198 ft | 345 kts | 1° |
| 2026-05-04 21:27 | 55.43019 | -3.18376 | 19809 ft | 342 kts | 1° |
| 2026-05-04 21:27 | 55.45385 | -3.18005 | 19375 ft | 342 kts | 1° |
| 2026-05-04 21:27 | 55.47747 | -3.17634 | 18986 ft | 339 kts | 1° |
| 2026-05-04 21:27 | 55.50081 | -3.17260 | 18651 ft | 335 kts | 1° |
| 2026-05-04 21:28 | 55.52391 | -3.16892 | 18288 ft | 332 kts | 1° |
| 2026-05-04 21:28 | 55.54682 | -3.16534 | 17878 ft | 329 kts | 0° |
| 2026-05-04 21:28 | 55.56957 | -3.16180 | 17475 ft | 327 kts | 1° |
| 2026-05-04 21:28 | 55.59221 | -3.15823 | 17078 ft | 326 kts | 1° |
| 2026-05-04 21:29 | 55.61477 | -3.15468 | 16684 ft | 325 kts | 1° |
| 2026-05-04 21:29 | 55.63722 | -3.15116 | 16294 ft | 323 kts | 1° |
| 2026-05-04 21:29 | 55.65959 | -3.14764 | 15904 ft | 322 kts | 1° |
| 2026-05-04 21:29 | 55.68184 | -3.14414 | 15528 ft | 321 kts | 1° |
| 2026-05-04 21:30 | 55.70404 | -3.13979 | 15103 ft | 323 kts | 7° |
| 2026-05-04 21:30 | 55.72607 | -3.13065 | 14509 ft | 327 kts | 11° |
| 2026-05-04 21:30 | 55.74814 | -3.12072 | 13943 ft | 328 kts | 10° |
| 2026-05-04 21:30 | 55.77026 | -3.11062 | 13315 ft | 329 kts | 11° |
| 2026-05-04 21:31 | 55.81420 | -3.08803 | 12049 ft | 332 kts | 22° |
| 2026-05-04 21:31 | 55.83465 | -3.06942 | 11433 ft | 328 kts | 25° |
| 2026-05-04 21:31 | 55.85489 | -3.05031 | 10547 ft | 332 kts | 25° |
| 2026-05-04 21:32 | 55.87539 | -3.03098 | 9640 ft | 335 kts | 25° |
| 2026-05-04 21:32 | 55.89624 | -3.01244 | 8680 ft | 333 kts | 18° |
| 2026-05-04 21:32 | 55.91830 | -3.00203 | 7872 ft | 325 kts | 10° |
| 2026-05-04 21:32 | 55.94020 | -2.99349 | 7094 ft | 319 kts | 10° |
| 2026-05-04 21:33 | 55.96171 | -2.98531 | 6310 ft | 313 kts | 10° |
| 2026-05-04 21:33 | 55.98283 | -2.97750 | 5490 ft | 307 kts | 10° |
| 2026-05-04 21:33 | 56.00364 | -2.97063 | 4685 ft | 300 kts | 2° |
| 2026-05-04 21:33 | 56.02335 | -2.97677 | 4331 ft | 277 kts | 335° |
| 2026-05-04 21:34 | 56.03850 | -2.99505 | 4169 ft | 252 kts | 313° |
| 2026-05-04 21:34 | 56.04790 | -3.01981 | 4011 ft | 231 kts | 297° |
| 2026-05-04 21:34 | 56.05333 | -3.04495 | 3856 ft | 212 kts | 277° |
| 2026-05-04 21:34 | 56.05133 | -3.07063 | 3692 ft | 208 kts | 246° |
| 2026-05-04 21:35 | 56.04417 | -3.09294 | 3545 ft | 202 kts | 241° |
| 2026-05-04 21:35 | 56.03718 | -3.11364 | 3433 ft | 186 kts | 240° |
| 2026-05-04 21:35 | 56.03081 | -3.13249 | 3265 ft | 173 kts | 242° |
| 2026-05-04 21:35 | 56.02482 | -3.15028 | 3110 ft | 161 kts | 242° |
| 2026-05-04 21:36 | 56.01932 | -3.16662 | 3026 ft | 147 kts | 242° |
| 2026-05-04 21:36 | 56.01411 | -3.18220 | 2761 ft | 148 kts | 243° |
| 2026-05-04 21:36 | 56.00885 | -3.19788 | 2381 ft | 146 kts | 243° |
| 2026-05-04 21:36 | 56.00368 | -3.21327 | 2100 ft | 143 kts | 242° |
| 2026-05-04 21:37 | 55.99861 | -3.22835 | 1879 ft | 140 kts | 243° |
| 2026-05-04 21:37 | 55.99369 | -3.24294 | 1680 ft | 134 kts | 243° |
| 2026-05-04 21:37 | 55.98896 | -3.25699 | 1488 ft | 131 kts | 243° |
| 2026-05-04 21:37 | 55.98427 | -3.27091 | 1312 ft | 130 kts | 242° |
| 2026-05-04 21:38 | 55.97964 | -3.28467 | 1124 ft | 129 kts | 242° |
| 2026-05-04 21:38 | 55.97500 | -3.29850 | 932 ft | 130 kts | 241° |
| 2026-05-04 21:38 | 55.97036 | -3.31223 | 756 ft | 130 kts | 241° |
| 2026-05-04 21:38 | 55.96565 | -3.32626 | 555 ft | 133 kts | 240° |
| 2026-05-04 21:39 | 55.96088 | -3.34030 | 349 ft | 131 kts | 239° |
| 2026-05-04 21:39 | 55.95617 | -3.35429 | 183 ft | 131 kts | 238° |
| 2026-05-04 21:39 | 55.95165 | -3.36773 | 114 ft | 116 kts | 239° |
| 2026-05-04 21:39 | 55.94789 | -3.37873 | 114 ft | 81 kts | 239° |
| 2026-05-04 21:40 | 55.94567 | -3.38525 | 112 ft | 52 kts | 238° |
| 2026-05-04 21:40 | 55.94438 | -3.38910 | 114 ft | 17 kts | 237° |
| 2026-05-04 21:40 | 55.94350 | -3.38940 | 115 ft | 14 kts | 149° |
| 2026-05-04 21:40 | 55.94278 | -3.38841 | 116 ft | 11 kts | 115° |
| 2026-05-04 21:41 | 55.94306 | -3.38724 | 114 ft | 8 kts | 58° |
| 2026-05-04 21:41 | 55.94336 | -3.38636 | 116 ft | 9 kts | 58° |
| 2026-05-04 21:41 | 55.94369 | -3.38541 | 113 ft | 9 kts | 59° |
| 2026-05-04 21:41 | 55.94404 | -3.38436 | 113 ft | 10 kts | 58° |
| 2026-05-04 21:42 | 55.94439 | -3.38335 | 116 ft | 9 kts | 59° |
| 2026-05-04 21:42 | 55.94475 | -3.38226 | 114 ft | 12 kts | 59° |
| 2026-05-04 21:42 | 55.94527 | -3.38072 | 114 ft | 17 kts | 59° |
| 2026-05-04 21:42 | 55.94569 | -3.37945 | 114 ft | 19 kts | 59° |
| 2026-05-04 21:43 | 55.94647 | -3.37720 | 113 ft | 23 kts | 58° |
| 2026-05-04 21:43 | 55.94736 | -3.37462 | 114 ft | 26 kts | 58° |
| 2026-05-04 21:43 | 55.94833 | -3.37171 | 113 ft | 28 kts | 59° |
| 2026-05-04 21:43 | 55.94929 | -3.36887 | 116 ft | 24 kts | 59° |
| 2026-05-04 21:44 | 55.95013 | -3.36637 | 114 ft | 23 kts | 58° |
| 2026-05-04 21:44 | 55.95098 | -3.36391 | 115 ft | 21 kts | 59° |
| 2026-05-04 21:44 | 55.95136 | -3.36229 | 116 ft | 12 kts | 97° |
| 2026-05-04 21:44 | 55.95109 | -3.36085 | 114 ft | 12 kts | 108° |
| 2026-05-04 21:45 | 55.95077 | -3.35938 | 116 ft | 13 kts | 114° |
| 2026-05-04 21:45 | 55.95019 | -3.35835 | 116 ft | 12 kts | 176° |
| 2026-05-04 21:45 | 55.94950 | -3.35858 | 116 ft | 10 kts | 168° |
| 2026-05-04 21:45 | 55.94900 | -3.35820 | 114 ft | 7 kts | 200° |
| 2026-05-04 21:46 | 55.94868 | -3.35853 | 113 ft | 4 kts | 209° |
| 2026-05-04 21:46 | 55.94851 | -3.35869 | 116 ft | 2 kts | 208° |
| 2026-05-04 21:46 | 55.94847 | -3.35873 | 116 ft | 0 kts | 208° |